PWSweather.com
Personal Weather Stations
Station Observations
DW1039
Liberty & Fairfield Townships, Hamilton, OH 45011

Liberty & Fairfield TownshipsHamilton, OH 45011

Lat: 39.3933, Lon: -84.477

Elevation: 780

Station Type: Davis Vantage Pro2 (Daytime Fan Aspirated)

http://www.lfweathercenter.com/

Latest ConditionsUpdated 5:20:16 PM EST Sunday, Jan 20, 2019
Currently Today's Max Today's Min Today's Average
Temperature 11.4°F-11.4°C 20.4°F-6.4°C 8.0°F-13.3°C 13.4°F-10.3°C
Dew Point 6.4°F-14.2°C 18.2°F-7.7°C 5.7°F-14.6°C 10.7°F-11.8°C
Winds 1.0 mph NW1.6 kmh NW 13.0 mph -20.9 kmh - - 6.3 mph 10.1 kmh
Wind Gusts 6.0 mph9.7 kmh 22.0 mph35.4 kmh - -
Humidity 80% 91% 79% 89%
Pressure 30.35 in1027.8 mb 30.35 in1027.8 mb 29.73 in1006.8 mb -
Hour Temp Dew Point Humidity Winds Wind Gusts Pressure Precip Precip Rate Daily Precip Total
05:20 PM 11.4°F-11.4°C 6.4°F-14.2°C 80% 1.0 mph NW1.6 kmh NW 6.0 mph9.7 kmh 30.35 in1027.8 mb 0.00 in0.0 mm 0.00 in0.0 mm 0.12 in3.0 mm
05:10 PM 11.6°F-11.3°C 6.6°F-14.1°C 80% 4.0 mph NW6.4 kmh NW 5.0 mph8.0 kmh 30.34 in1027.4 mb 0.00 in0.0 mm 0.00 in0.0 mm 0.12 in3.0 mm
05:00 PM 11.9°F-11.2°C 6.7°F-14.1°C 79% 3.0 mph NW4.8 kmh NW 5.0 mph8.0 kmh 30.34 in1027.4 mb 0.00 in0.0 mm 0.00 in0.0 mm 0.12 in3.0 mm
04:50 PM 12.0°F-11.1°C 6.8°F-14.0°C 79% 3.0 mph NNW4.8 kmh NNW 11.0 mph17.7 kmh 30.33 in1027.1 mb 0.00 in0.0 mm 0.00 in0.0 mm 0.12 in3.0 mm
04:40 PM 12.2°F-11.0°C 7.0°F-13.9°C 79% 4.0 mph NW6.4 kmh NW 11.0 mph17.7 kmh 30.33 in1027.1 mb 0.00 in0.0 mm 0.00 in0.0 mm 0.12 in3.0 mm
04:30 PM 12.6°F-10.8°C 7.3°F-13.7°C 79% 5.0 mph NW8.0 kmh NW 11.0 mph17.7 kmh 30.33 in1027.1 mb 0.00 in0.0 mm 0.00 in0.0 mm 0.12 in3.0 mm
04:20 PM 12.7°F-10.7°C 7.4°F-13.7°C 79% 9.0 mph NNW14.5 kmh NNW 12.0 mph19.3 kmh 30.33 in1027.1 mb 0.00 in0.0 mm 0.00 in0.0 mm 0.12 in3.0 mm
04:10 PM 13.0°F-10.6°C 7.7°F-13.5°C 79% 3.0 mph NNE4.8 kmh NNE 12.0 mph19.3 kmh 30.32 in1026.8 mb 0.00 in0.0 mm 0.00 in0.0 mm 0.12 in3.0 mm
04:00 PM 13.3°F-10.4°C 8.3°F-13.2°C 80% 5.0 mph NW8.0 kmh NW 11.0 mph17.7 kmh 30.32 in1026.8 mb 0.00 in0.0 mm 0.00 in0.0 mm 0.12 in3.0 mm
03:50 PM 13.1°F-10.5°C 8.1°F-13.3°C 80% 9.0 mph NNW14.5 kmh NNW 12.0 mph19.3 kmh 30.32 in1026.8 mb 0.00 in0.0 mm 0.00 in0.0 mm 0.12 in3.0 mm
03:40 PM 13.3°F-10.4°C 8.3°F-13.2°C 80% 9.0 mph NW14.5 kmh NW 13.0 mph20.9 kmh 30.31 in1026.4 mb 0.00 in0.0 mm 0.00 in0.0 mm 0.12 in3.0 mm
03:30 PM 13.7°F-10.2°C 9.0°F-12.8°C 81% 3.0 mph N4.8 kmh N 10.0 mph16.1 kmh 30.30 in1026.1 mb 0.00 in0.0 mm 0.00 in0.0 mm 0.12 in3.0 mm
03:20 PM 14.0°F-10.0°C 9.5°F-12.5°C 82% 4.0 mph NNW6.4 kmh NNW 12.0 mph19.3 kmh 30.29 in1025.7 mb 0.00 in0.0 mm 0.00 in0.0 mm 0.12 in3.0 mm
03:10 PM 13.6°F-10.2°C 9.1°F-12.7°C 82% 4.0 mph NW6.4 kmh NW 15.0 mph24.1 kmh 30.29 in1025.7 mb 0.00 in0.0 mm 0.00 in0.0 mm 0.12 in3.0 mm
03:04 PM 13.7°F-10.2°C 9.5°F-12.5°C 83% 8.0 mph NW12.9 kmh NW 12.0 mph19.3 kmh 30.28 in1025.4 mb 0.00 in0.0 mm 0.00 in0.0 mm 0.12 in3.0 mm
02:50 PM 13.6°F-10.2°C 9.7°F-12.4°C 84% 4.0 mph NW6.4 kmh NW 12.0 mph19.3 kmh 30.28 in1025.4 mb 0.00 in0.0 mm 0.00 in0.0 mm 0.12 in3.0 mm
02:40 PM 13.6°F-10.2°C 9.7°F-12.4°C 84% 4.0 mph NW6.4 kmh NW 12.0 mph19.3 kmh 30.27 in1025.1 mb 0.00 in0.0 mm 0.00 in0.0 mm 0.12 in3.0 mm
02:30 PM 13.4°F-10.3°C 9.7°F-12.4°C 85% 9.0 mph NNW14.5 kmh NNW 15.0 mph24.1 kmh 30.27 in1025.1 mb 0.00 in0.0 mm 0.00 in0.0 mm 0.12 in3.0 mm
02:20 PM 13.4°F-10.3°C 10.0°F-12.2°C 86% 5.0 mph NNW8.0 kmh NNW 12.0 mph19.3 kmh 30.27 in1025.1 mb 0.00 in0.0 mm 0.00 in0.0 mm 0.12 in3.0 mm
02:10 PM 13.4°F-10.3°C 10.0°F-12.2°C 86% 4.0 mph NNW6.4 kmh NNW 12.0 mph19.3 kmh 30.26 in1024.7 mb 0.00 in0.0 mm 0.00 in0.0 mm 0.12 in3.0 mm
02:00 PM 12.9°F-10.6°C 9.5°F-12.5°C 86% 8.0 mph WSW12.9 kmh WSW 17.0 mph27.4 kmh 30.25 in1024.4 mb 0.00 in0.0 mm 0.00 in0.0 mm 0.12 in3.0 mm
01:50 PM 13.3°F-10.4°C 10.2°F-12.1°C 87% 6.0 mph NNW9.7 kmh NNW 12.0 mph19.3 kmh 30.25 in1024.4 mb 0.00 in0.0 mm 0.00 in0.0 mm 0.12 in3.0 mm
01:40 PM 13.1°F-10.5°C 10.2°F-12.1°C 88% 5.0 mph N8.0 kmh N 9.0 mph14.5 kmh 30.25 in1024.4 mb 0.00 in0.0 mm 0.00 in0.0 mm 0.12 in3.0 mm
01:30 PM 12.7°F-10.7°C 9.8°F-12.3°C 88% 9.0 mph NW14.5 kmh NW 9.0 mph14.5 kmh 30.25 in1024.4 mb 0.00 in0.0 mm 0.00 in0.0 mm 0.12 in3.0 mm
01:20 PM 12.4°F-10.9°C 9.5°F-12.5°C 88% 5.0 mph NW8.0 kmh NW 14.0 mph22.5 kmh 30.25 in1024.4 mb 0.00 in0.0 mm 0.00 in0.0 mm 0.12 in3.0 mm
01:10 PM 12.5°F-10.8°C 9.9°F-12.3°C 89% 10.0 mph NNW16.1 kmh NNW 11.0 mph17.7 kmh 30.25 in1024.4 mb 0.00 in0.0 mm 0.00 in0.0 mm 0.12 in3.0 mm
01:00 PM 12.2°F-11.0°C 9.6°F-12.4°C 89% 5.0 mph N8.0 kmh N 13.0 mph20.9 kmh 30.25 in1024.4 mb 0.00 in0.0 mm 0.00 in0.0 mm 0.12 in3.0 mm
12:50 PM 12.2°F-11.0°C 9.6°F-12.4°C 89% 5.0 mph N8.0 kmh N 12.0 mph19.3 kmh 30.26 in1024.7 mb 0.00 in0.0 mm 0.00 in0.0 mm 0.12 in3.0 mm
12:40 PM 12.1°F-11.1°C 9.5°F-12.5°C 89% 5.0 mph NNW8.0 kmh NNW 9.0 mph14.5 kmh 30.26 in1024.7 mb 0.00 in0.0 mm 0.00 in0.0 mm 0.12 in3.0 mm
12:30 PM 11.9°F-11.2°C 9.5°F-12.5°C 90% 4.0 mph NW6.4 kmh NW 10.0 mph16.1 kmh 30.25 in1024.4 mb 0.00 in0.0 mm 0.00 in0.0 mm 0.12 in3.0 mm
12:20 PM 11.3°F-11.5°C 8.9°F-12.8°C 90% 4.0 mph NW6.4 kmh NW 11.0 mph17.7 kmh 30.25 in1024.4 mb 0.00 in0.0 mm 0.00 in0.0 mm 0.12 in3.0 mm
12:10 PM 11.1°F-11.6°C 8.8°F-12.9°C 90% 6.0 mph NW9.7 kmh NW 11.0 mph17.7 kmh 30.25 in1024.4 mb 0.00 in0.0 mm 0.00 in0.0 mm 0.12 in3.0 mm
12:00 PM 11.5°F-11.4°C 9.1°F-12.7°C 90% 5.0 mph W8.0 kmh W 10.0 mph16.1 kmh 30.25 in1024.4 mb 0.00 in0.0 mm 0.00 in0.0 mm 0.12 in3.0 mm
11:50 AM 10.7°F-11.8°C 8.4°F-13.1°C 90% 3.0 mph NNW4.8 kmh NNW 9.0 mph14.5 kmh 30.26 in1024.7 mb 0.00 in0.0 mm 0.00 in0.0 mm 0.12 in3.0 mm
11:40 AM 10.2°F-12.1°C 7.9°F-13.4°C 90% 4.0 mph NNW6.4 kmh NNW 9.0 mph14.5 kmh 30.25 in1024.4 mb 0.00 in0.0 mm 0.00 in0.0 mm 0.12 in3.0 mm
11:30 AM 10.3°F-12.1°C 8.0°F-13.3°C 90% 6.0 mph NW9.7 kmh NW 10.0 mph16.1 kmh 30.25 in1024.4 mb 0.00 in0.0 mm 0.00 in0.0 mm 0.12 in3.0 mm
11:20 AM 10.3°F-12.1°C 8.0°F-13.3°C 90% 4.0 mph NW6.4 kmh NW 10.0 mph16.1 kmh 30.25 in1024.4 mb 0.00 in0.0 mm 0.00 in0.0 mm 0.12 in3.0 mm
11:10 AM 10.2°F-12.1°C 7.9°F-13.4°C 90% 7.0 mph NNW11.3 kmh NNW 10.0 mph16.1 kmh 30.25 in1024.4 mb 0.00 in0.0 mm 0.00 in0.0 mm 0.12 in3.0 mm
11:00 AM 9.5°F-12.5°C 7.2°F-13.8°C 90% 11.0 mph NNW17.7 kmh NNW 11.0 mph17.7 kmh 30.25 in1024.4 mb 0.00 in0.0 mm 0.00 in0.0 mm 0.12 in3.0 mm
10:50 AM 9.8°F-12.3°C 7.5°F-13.6°C 90% 3.0 mph NNW4.8 kmh NNW 12.0 mph19.3 kmh 30.24 in1024.0 mb 0.00 in0.0 mm 0.00 in0.0 mm 0.12 in3.0 mm
10:40 AM 9.9°F-12.3°C 7.6°F-13.6°C 90% 10.0 mph NNW16.1 kmh NNW 10.0 mph16.1 kmh 30.24 in1024.0 mb 0.00 in0.0 mm 0.00 in0.0 mm 0.12 in3.0 mm
10:30 AM 9.7°F-12.4°C 7.4°F-13.7°C 90% 5.0 mph NNW8.0 kmh NNW 11.0 mph17.7 kmh 30.24 in1024.0 mb 0.00 in0.0 mm 0.00 in0.0 mm 0.12 in3.0 mm
10:20 AM 9.4°F-12.6°C 7.1°F-13.8°C 90% 7.0 mph NNW11.3 kmh NNW 10.0 mph16.1 kmh 30.22 in1023.4 mb 0.00 in0.0 mm 0.00 in0.0 mm 0.12 in3.0 mm
10:10 AM 9.5°F-12.5°C 7.2°F-13.8°C 90% 9.0 mph NNW14.5 kmh NNW 12.0 mph19.3 kmh 30.22 in1023.4 mb 0.00 in0.0 mm 0.00 in0.0 mm 0.12 in3.0 mm
10:00 AM 9.0°F-12.8°C 6.7°F-14.1°C 90% 8.0 mph NNW12.9 kmh NNW 14.0 mph22.5 kmh 30.22 in1023.4 mb 0.00 in0.0 mm 0.00 in0.0 mm 0.12 in3.0 mm
09:50 AM 8.9°F-12.8°C 6.6°F-14.1°C 90% 7.0 mph N11.3 kmh N 11.0 mph17.7 kmh 30.21 in1023.0 mb 0.00 in0.0 mm 0.00 in0.0 mm 0.12 in3.0 mm
09:40 AM 8.7°F-12.9°C 6.4°F-14.2°C 90% 5.0 mph NW8.0 kmh NW 11.0 mph17.7 kmh 30.21 in1023.0 mb 0.00 in0.0 mm 0.00 in0.0 mm 0.12 in3.0 mm
09:30 AM 8.3°F-13.2°C 6.0°F-14.4°C 90% 2.0 mph NNW3.2 kmh NNW 12.0 mph19.3 kmh 30.21 in1023.0 mb 0.00 in0.0 mm 0.00 in0.0 mm 0.12 in3.0 mm
09:20 AM 8.2°F-13.2°C 5.9°F-14.5°C 90% 7.0 mph NNW11.3 kmh NNW 11.0 mph17.7 kmh 30.20 in1022.7 mb 0.00 in0.0 mm 0.00 in0.0 mm 0.12 in3.0 mm
09:10 AM 8.0°F-13.3°C 5.7°F-14.6°C 90% 6.0 mph NW9.7 kmh NW 11.0 mph17.7 kmh 30.20 in1022.7 mb 0.00 in0.0 mm 0.00 in0.0 mm 0.12 in3.0 mm
09:00 AM 8.3°F-13.2°C 6.0°F-14.4°C 90% 8.0 mph NW12.9 kmh NW 12.0 mph19.3 kmh 30.19 in1022.4 mb 0.00 in0.0 mm 0.00 in0.0 mm 0.12 in3.0 mm
08:50 AM 8.5°F-13.1°C 6.2°F-14.3°C 90% 3.0 mph NW4.8 kmh NW 7.0 mph11.3 kmh 30.18 in1022.0 mb 0.00 in0.0 mm 0.00 in0.0 mm 0.12 in3.0 mm
08:40 AM 8.6°F-13.0°C 6.3°F-14.3°C 90% 5.0 mph NNW8.0 kmh NNW 11.0 mph17.7 kmh 30.17 in1021.7 mb 0.00 in0.0 mm 0.00 in0.0 mm 0.12 in3.0 mm
08:30 AM 8.7°F-12.9°C 6.4°F-14.2°C 90% 6.0 mph NNW9.7 kmh NNW 10.0 mph16.1 kmh 30.17 in1021.7 mb 0.00 in0.0 mm 0.00 in0.0 mm 0.12 in3.0 mm
08:20 AM 8.8°F-12.9°C 6.5°F-14.2°C 90% 6.0 mph N9.7 kmh N 8.0 mph12.9 kmh 30.16 in1021.3 mb 0.00 in0.0 mm 0.00 in0.0 mm 0.12 in3.0 mm
08:10 AM 8.8°F-12.9°C 6.5°F-14.2°C 90% 10.0 mph NNW16.1 kmh NNW 11.0 mph17.7 kmh 30.15 in1021.0 mb 0.00 in0.0 mm 0.00 in0.0 mm 0.12 in3.0 mm
08:00 AM 9.2°F-12.7°C 6.9°F-13.9°C 90% 3.0 mph NNW4.8 kmh NNW 9.0 mph14.5 kmh 30.14 in1020.7 mb 0.00 in0.0 mm 0.00 in0.0 mm 0.12 in3.0 mm
07:50 AM 9.5°F-12.5°C 7.2°F-13.8°C 90% 5.0 mph NNW8.0 kmh NNW 14.0 mph22.5 kmh 30.13 in1020.3 mb 0.00 in0.0 mm 0.00 in0.0 mm 0.12 in3.0 mm
07:40 AM 10.1°F-12.2°C 7.8°F-13.4°C 90% 9.0 mph NNW14.5 kmh NNW 11.0 mph17.7 kmh 30.12 in1020.0 mb 0.00 in0.0 mm 0.00 in0.0 mm 0.12 in3.0 mm
07:30 AM 10.8°F-11.8°C 8.5°F-13.1°C 90% 7.0 mph NNW11.3 kmh NNW 13.0 mph20.9 kmh 30.12 in1020.0 mb 0.00 in0.0 mm 0.00 in0.0 mm 0.12 in3.0 mm
07:20 AM 11.2°F-11.6°C 8.9°F-12.8°C 90% 11.0 mph N17.7 kmh N 14.0 mph22.5 kmh 30.12 in1020.0 mb 0.00 in0.0 mm 0.00 in0.0 mm 0.12 in3.0 mm
07:10 AM 12.2°F-11.0°C 9.8°F-12.3°C 90% 8.0 mph NW12.9 kmh NW 12.0 mph19.3 kmh 30.11 in1019.6 mb 0.00 in0.0 mm 0.00 in0.0 mm 0.12 in3.0 mm
07:00 AM 12.6°F-10.8°C 10.5°F-11.9°C 91% 5.0 mph NNW8.0 kmh NNW 16.0 mph25.7 kmh 30.10 in1019.3 mb 0.00 in0.0 mm 0.00 in0.0 mm 0.12 in3.0 mm
06:50 AM 12.6°F-10.8°C 10.5°F-11.9°C 91% 5.0 mph N8.0 kmh N 14.0 mph22.5 kmh 30.09 in1019.0 mb 0.00 in0.0 mm 0.00 in0.0 mm 0.12 in3.0 mm
06:40 AM 13.0°F-10.6°C 10.9°F-11.7°C 91% 9.0 mph N14.5 kmh N 16.0 mph25.7 kmh 30.08 in1018.6 mb 0.00 in0.0 mm 0.00 in0.0 mm 0.12 in3.0 mm
06:30 AM 13.2°F-10.4°C 11.1°F-11.6°C 91% 7.0 mph N11.3 kmh N 14.0 mph22.5 kmh 30.07 in1018.3 mb 0.00 in0.0 mm 0.00 in0.0 mm 0.12 in3.0 mm
06:20 AM 13.7°F-10.2°C 11.6°F-11.3°C 91% 8.0 mph NW12.9 kmh NW 16.0 mph25.7 kmh 30.06 in1017.9 mb 0.00 in0.0 mm 0.00 in0.0 mm 0.12 in3.0 mm
06:10 AM 14.0°F-10.0°C 11.9°F-11.2°C 91% 8.0 mph NNW12.9 kmh NNW 14.0 mph22.5 kmh 30.05 in1017.6 mb 0.00 in0.0 mm 0.00 in0.0 mm 0.12 in3.0 mm
06:00 AM 14.1°F-9.9°C 12.0°F-11.1°C 91% 6.0 mph NNW9.7 kmh NNW 14.0 mph22.5 kmh 30.03 in1016.9 mb 0.00 in0.0 mm 0.00 in0.0 mm 0.12 in3.0 mm
05:50 AM 14.3°F-9.8°C 12.2°F-11.0°C 91% 12.0 mph NNW19.3 kmh NNW 16.0 mph25.7 kmh 30.03 in1016.9 mb 0.00 in0.0 mm 0.00 in0.0 mm 0.12 in3.0 mm
05:40 AM 14.4°F-9.8°C 12.3°F-10.9°C 91% 4.0 mph N6.4 kmh N 13.0 mph20.9 kmh 30.03 in1016.9 mb 0.00 in0.0 mm 0.00 in0.0 mm 0.12 in3.0 mm
05:30 AM 14.6°F-9.7°C 12.5°F-10.8°C 91% 7.0 mph NW11.3 kmh NW 13.0 mph20.9 kmh 30.02 in1016.6 mb 0.00 in0.0 mm 0.00 in0.0 mm 0.12 in3.0 mm
05:20 AM 14.8°F-9.6°C 12.7°F-10.7°C 91% 4.0 mph N6.4 kmh N 16.0 mph25.7 kmh 30.01 in1016.3 mb 0.00 in0.0 mm 0.00 in0.0 mm 0.12 in3.0 mm
05:10 AM 15.0°F-9.4°C 12.9°F-10.6°C 91% 5.0 mph N8.0 kmh N 14.0 mph22.5 kmh 30.01 in1016.3 mb 0.00 in0.0 mm 0.00 in0.0 mm 0.12 in3.0 mm
05:00 AM 15.2°F-9.3°C 13.1°F-10.5°C 91% 11.0 mph N17.7 kmh N 16.0 mph25.7 kmh 30.00 in1015.9 mb 0.00 in0.0 mm 0.00 in0.0 mm 0.12 in3.0 mm
04:50 AM 15.4°F-9.2°C 13.3°F-10.4°C 91% 6.0 mph NW9.7 kmh NW 13.0 mph20.9 kmh 29.99 in1015.6 mb 0.00 in0.0 mm 0.00 in0.0 mm 0.12 in3.0 mm
04:40 AM 15.7°F-9.1°C 13.5°F-10.3°C 91% 4.0 mph NNW6.4 kmh NNW 12.0 mph19.3 kmh 29.97 in1014.9 mb 0.00 in0.0 mm 0.00 in0.0 mm 0.12 in3.0 mm
04:30 AM 16.0°F-8.9°C 13.8°F-10.1°C 91% 6.0 mph N9.7 kmh N 13.0 mph20.9 kmh 29.96 in1014.6 mb 0.01 in0.3 mm 0.00 in0.0 mm 0.12 in3.0 mm
04:20 AM 16.1°F-8.8°C 13.9°F-10.1°C 91% 5.0 mph NW8.0 kmh NW 12.0 mph19.3 kmh 29.94 in1013.9 mb 0.01 in0.3 mm 0.00 in0.0 mm 0.12 in3.0 mm
04:10 AM 16.3°F-8.7°C 14.1°F-9.9°C 91% 7.0 mph NW11.3 kmh NW 16.0 mph25.7 kmh 29.93 in1013.5 mb 0.01 in0.3 mm 0.00 in0.0 mm 0.12 in3.0 mm
04:00 AM 16.5°F-8.6°C 14.3°F-9.8°C 91% 10.0 mph NNW16.1 kmh NNW 10.0 mph16.1 kmh 29.92 in1013.2 mb 0.01 in0.3 mm 0.00 in0.0 mm 0.12 in3.0 mm
03:50 AM 16.7°F-8.5°C 14.5°F-9.7°C 91% 8.0 mph WNW12.9 kmh WNW 12.0 mph19.3 kmh 29.91 in1012.9 mb 0.01 in0.3 mm 0.00 in0.0 mm 0.12 in3.0 mm
03:40 AM 16.8°F-8.4°C 14.6°F-9.7°C 91% 7.0 mph NNW11.3 kmh NNW 15.0 mph24.1 kmh 29.90 in1012.5 mb 0.01 in0.3 mm 0.06 in1.5 mm 0.12 in3.0 mm
03:30 AM 16.8°F-8.4°C 14.6°F-9.7°C 91% 6.0 mph NNW9.7 kmh NNW 14.0 mph22.5 kmh 29.89 in1012.2 mb 0.00 in0.0 mm 0.00 in0.0 mm 0.11 in2.8 mm
03:20 AM 16.9°F-8.4°C 14.7°F-9.6°C 91% 3.0 mph NW4.8 kmh NW 16.0 mph25.7 kmh 29.88 in1011.9 mb 0.00 in0.0 mm 0.00 in0.0 mm 0.11 in2.8 mm
03:10 AM 17.0°F-8.3°C 14.8°F-9.6°C 91% 5.0 mph NNE8.0 kmh NNE 13.0 mph20.9 kmh 29.87 in1011.5 mb 0.01 in0.3 mm 0.00 in0.0 mm 0.11 in2.8 mm
03:00 AM 17.2°F-8.2°C 15.0°F-9.4°C 91% 6.0 mph NNE9.7 kmh NNE 15.0 mph24.1 kmh 29.88 in1011.9 mb 0.01 in0.3 mm 0.00 in0.0 mm 0.11 in2.8 mm
02:50 AM 17.3°F-8.2°C 15.1°F-9.4°C 91% 5.0 mph NW8.0 kmh NW 12.0 mph19.3 kmh 29.86 in1011.2 mb 0.02 in0.5 mm 0.00 in0.0 mm 0.11 in2.8 mm
02:40 AM 17.4°F-8.1°C 15.2°F-9.3°C 91% 9.0 mph NW14.5 kmh NW 13.0 mph20.9 kmh 29.86 in1011.2 mb 0.02 in0.5 mm 0.00 in0.0 mm 0.11 in2.8 mm
02:30 AM 17.5°F-8.1°C 15.3°F-9.3°C 91% 4.0 mph NNW6.4 kmh NNW 17.0 mph27.4 kmh 29.85 in1010.8 mb 0.02 in0.5 mm 0.00 in0.0 mm 0.11 in2.8 mm
02:20 AM 17.7°F-7.9°C 15.5°F-9.2°C 91% 9.0 mph NW14.5 kmh NW 15.0 mph24.1 kmh 29.84 in1010.5 mb 0.03 in0.8 mm 0.06 in1.5 mm 0.11 in2.8 mm
02:10 AM 17.8°F-7.9°C 15.6°F-9.1°C 91% 6.0 mph NNW9.7 kmh NNW 19.0 mph30.6 kmh 29.83 in1010.2 mb 0.02 in0.5 mm 0.00 in0.0 mm 0.10 in2.5 mm
02:00 AM 18.1°F-7.7°C 15.9°F-8.9°C 91% 7.0 mph WNW11.3 kmh WNW 15.0 mph24.1 kmh 29.82 in1009.8 mb 0.03 in0.8 mm 0.00 in0.0 mm 0.10 in2.5 mm
01:50 AM 18.2°F-7.7°C 16.0°F-8.9°C 91% 8.0 mph N12.9 kmh N 13.0 mph20.9 kmh 29.81 in1009.5 mb 0.04 in1.0 mm 0.00 in0.0 mm 0.10 in2.5 mm
01:40 AM 18.3°F-7.6°C 16.1°F-8.8°C 91% 13.0 mph NW20.9 kmh NW 16.0 mph25.7 kmh 29.80 in1009.1 mb 0.05 in1.3 mm 0.00 in0.0 mm 0.10 in2.5 mm
01:30 AM 18.6°F-7.4°C 16.4°F-8.7°C 91% 7.0 mph NW11.3 kmh NW 18.0 mph29.0 kmh 29.79 in1008.8 mb 0.06 in1.5 mm 0.00 in0.0 mm 0.10 in2.5 mm
01:20 AM 18.9°F-7.3°C 16.7°F-8.5°C 91% 8.0 mph N12.9 kmh N 16.0 mph25.7 kmh 29.78 in1008.5 mb 0.06 in1.5 mm 0.00 in0.0 mm 0.10 in2.5 mm
01:10 AM 19.0°F-7.2°C 16.8°F-8.4°C 91% 10.0 mph N16.1 kmh N 22.0 mph35.4 kmh 29.77 in1008.1 mb 0.08 in2.0 mm 0.00 in0.0 mm 0.10 in2.5 mm
01:00 AM 19.0°F-7.2°C 16.8°F-8.4°C 91% 8.0 mph N12.9 kmh N 14.0 mph22.5 kmh 29.77 in1008.1 mb 0.08 in2.0 mm 0.00 in0.0 mm 0.10 in2.5 mm
12:50 AM 19.2°F-7.1°C 17.0°F-8.3°C 91% 10.0 mph NNW16.1 kmh NNW 14.0 mph22.5 kmh 29.76 in1007.8 mb 0.09 in2.3 mm 0.00 in0.0 mm 0.10 in2.5 mm
12:40 AM 19.4°F-7.0°C 17.2°F-8.2°C 91% 6.0 mph NNW9.7 kmh NNW 14.0 mph22.5 kmh 29.76 in1007.8 mb 0.09 in2.3 mm 0.00 in0.0 mm 0.10 in2.5 mm
12:30 AM 19.6°F-6.9°C 17.4°F-8.1°C 91% 5.0 mph N8.0 kmh N 17.0 mph27.4 kmh 29.76 in1007.8 mb 0.09 in2.3 mm 0.00 in0.0 mm 0.10 in2.5 mm
12:20 AM 19.8°F-6.8°C 17.6°F-8.0°C 91% 5.0 mph N8.0 kmh N 13.0 mph20.9 kmh 29.74 in1007.1 mb 0.10 in2.5 mm 0.00 in0.0 mm 0.10 in2.5 mm
12:10 AM 20.0°F-6.7°C 17.8°F-7.9°C 91% 6.0 mph N9.7 kmh N 14.0 mph22.5 kmh 29.74 in1007.1 mb 0.10 in2.5 mm 0.06 in1.5 mm 0.10 in2.5 mm
12:00 AM 20.4°F-6.4°C 18.2°F-7.7°C 91% 9.0 mph NW14.5 kmh NW 17.0 mph27.4 kmh 29.73 in1006.8 mb 0.09 in2.3 mm 0.00 in0.0 mm 0.09 in2.3 mm